Time;durP1;ratioP1;P1;durP2;ratioP2;P2;SDS_P1;SDS_P2;PMS_P1;PMS_P2;Temp;Humidity;BMP_temperature;BMP_pressure;BME280_temperature;BME280_humidity;BME280_pressure;Samples;Min_cycle;Max_cycle;Signal;HPM_P1;HPM_P2
2021/03/06 00:02:13;;;;;;;4.17;2.43;;;-0.10;99.90;;;;;;4951807;28;20209;-75
2021/03/06 00:04:39;;;;;;;4.67;2.50;;;-0.10;99.90;;;;;;4952924;28;20232;-76
2021/03/06 00:07:06;;;;;;;7.73;2.87;;;-0.10;99.90;;;;;;4952049;28;20274;-76
2021/03/06 00:09:32;;;;;;;4.87;2.97;;;-0.10;99.90;;;;;;4953934;28;20237;-76
2021/03/06 00:11:58;;;;;;;3.83;2.27;;;-0.20;99.90;;;;;;4952908;28;20210;-76
2021/03/06 00:14:25;;;;;;;4.67;2.70;;;-0.20;99.90;;;;;;4948642;28;20249;-76
2021/03/06 00:16:52;;;;;;;4.67;2.77;;;-0.10;99.90;;;;;;4951095;28;20249;-76
2021/03/06 00:19:19;;;;;;;4.40;2.93;;;-0.20;99.90;;;;;;4953999;28;20279;-75
2021/03/06 00:21:46;;;;;;;3.57;2.50;;;-0.20;99.90;;;;;;4955724;28;20719;-77
2021/03/06 00:24:12;;;;;;;8.00;2.90;;;-0.20;99.90;;;;;;4952862;29;20229;-76
2021/03/06 00:26:38;;;;;;;4.87;2.33;;;-0.20;99.90;;;;;;4954725;28;20206;-77
2021/03/06 00:29:05;;;;;;;5.93;2.17;;;-0.20;99.90;;;;;;4950756;29;20206;-76
2021/03/06 00:31:32;;;;;;;6.03;3.13;;;-0.20;99.90;;;;;;4952827;28;20221;-78
2021/03/06 00:33:59;;;;;;;3.83;2.47;;;-0.20;99.90;;;;;;4948126;28;20660;-76
2021/03/06 00:36:25;;;;;;;4.27;2.57;;;-0.20;99.90;;;;;;4951362;28;20269;-77
2021/03/06 00:38:52;;;;;;;6.77;2.53;;;-0.20;99.90;;;;;;4954781;28;20220;-77
2021/03/06 00:41:18;;;;;;;4.63;3.10;;;-0.20;99.90;;;;;;4949849;29;20293;-76
2021/03/06 00:43:45;;;;;;;5.07;2.67;;;-0.20;99.90;;;;;;4956414;28;20653;-76
2021/03/06 00:46:11;;;;;;;7.17;2.93;;;-0.20;99.90;;;;;;4952125;28;20269;-76
2021/03/06 00:48:37;;;;;;;6.20;2.77;;;-0.20;99.90;;;;;;4957446;28;20207;-75
2021/03/06 00:51:06;;;;;;;5.77;2.93;;;-0.10;99.90;;;;;;4954325;28;20304;-77
2021/03/06 00:53:33;;;;;;;5.67;2.50;;;-0.20;99.90;;;;;;4949592;28;20213;-76
2021/03/06 00:55:59;;;;;;;5.23;2.70;;;-0.10;99.90;;;;;;4952499;28;20210;-76
2021/03/06 00:58:26;;;;;;;5.80;3.10;;;-0.20;99.90;;;;;;4952077;28;20225;-76
2021/03/06 01:00:52;;;;;;;5.60;2.83;;;-0.10;99.90;;;;;;4947779;29;20756;-78
2021/03/06 01:03:19;;;;;;;3.77;3.00;;;-0.10;99.90;;;;;;4954145;28;20694;-76
2021/03/06 01:05:46;;;;;;;5.30;2.80;;;-0.10;99.90;;;;;;4950678;28;20288;-75
2021/03/06 01:08:14;;;;;;;5.03;3.03;;;-0.10;99.90;;;;;;4954874;28;20321;-76
2021/03/06 01:10:43;;;;;;;5.17;3.10;;;-0.10;99.90;;;;;;4950522;29;20562;-76
2021/03/06 01:13:10;;;;;;;4.03;2.43;;;-0.10;99.90;;;;;;4951898;28;20205;-76
2021/03/06 01:15:37;;;;;;;4.77;3.10;;;-0.20;99.90;;;;;;4948224;28;20282;-76
2021/03/06 01:18:06;;;;;;;5.43;2.93;;;-0.20;99.90;;;;;;4948764;29;20342;-76
2021/03/06 01:20:34;;;;;;;4.30;2.73;;;-0.20;99.90;;;;;;4951368;28;20236;-77
2021/03/06 01:23:00;;;;;;;5.17;3.63;;;-0.20;99.90;;;;;;4950763;28;20234;-76
2021/03/06 01:25:28;;;;;;;4.67;3.50;;;-0.20;99.90;;;;;;4952787;28;20292;-77
2021/03/06 01:27:55;;;;;;;6.53;3.70;;;-0.20;99.90;;;;;;4950453;29;20212;-76
2021/03/06 01:30:23;;;;;;;6.43;3.87;;;-0.30;99.90;;;;;;4953092;29;20206;-76
2021/03/06 01:32:51;;;;;;;5.23;3.20;;;-0.40;99.90;;;;;;4948427;29;20273;-76
2021/03/06 01:35:20;;;;;;;6.87;4.37;;;-0.40;99.90;;;;;;4953512;28;20714;-76
2021/03/06 01:37:47;;;;;;;6.97;3.70;;;-0.50;99.90;;;;;;4953837;28;20219;-76
2021/03/06 01:40:16;;;;;;;4.83;3.20;;;-0.50;99.90;;;;;;4949080;29;20211;-77
2021/03/06 01:42:44;;;;;;;5.83;3.67;;;-0.50;99.90;;;;;;4950264;29;20213;-77
2021/03/06 01:45:11;;;;;;;5.30;3.20;;;-0.50;99.90;;;;;;4951889;28;20229;-75
2021/03/06 01:47:38;;;;;;;7.67;4.13;;;-0.50;99.90;;;;;;4975704;28;20240;-75
2021/03/06 01:50:06;;;;;;;6.60;3.60;;;-0.50;99.90;;;;;;4954339;29;20698;-76
2021/03/06 01:52:33;;;;;;;5.10;3.50;;;-0.60;99.90;;;;;;4950441;29;20666;-76
2021/03/06 01:55:00;;;;;;;5.90;3.87;;;-0.60;99.90;;;;;;4952502;28;20327;-76
2021/03/06 01:57:27;;;;;;;7.47;4.03;;;-0.60;99.90;;;;;;4955571;29;20272;-77
2021/03/06 01:59:54;;;;;;;6.83;3.70;;;-0.60;99.90;;;;;;4953884;28;20209;-77
2021/03/06 02:02:21;;;;;;;6.93;4.00;;;-0.60;99.90;;;;;;4948206;28;20202;-76
2021/03/06 02:04:47;;;;;;;6.30;3.87;;;-0.60;99.90;;;;;;4947783;28;20235;-76
2021/03/06 02:07:14;;;;;;;7.63;4.77;;;-0.60;99.90;;;;;;4950839;28;20214;-77
2021/03/06 02:09:41;;;;;;;12.53;4.23;;;-0.60;99.90;;;;;;4950110;29;20216;-76
2021/03/06 02:12:18;;;;;;;9.60;4.43;;;-0.60;99.90;;;;;;4951237;28;20233;-76
2021/03/06 02:15:00;;;;;;;7.77;4.30;;;-0.60;99.90;;;;;;4948575;29;20724;-75
2021/03/06 02:17:34;;;;;;;5.83;3.90;;;-0.70;99.90;;;;;;4950950;28;20245;-76
2021/03/06 02:20:49;;;;;;;9.07;4.43;;;-0.70;99.90;;;;;;4949567;28;20234;-76
2021/03/06 02:23:40;;;;;;;8.23;3.77;;;-0.70;99.90;;;;;;4952698;28;20203;-76
2021/03/06 02:26:52;;;;;;;5.23;3.83;;;-0.70;99.90;;;;;;4961090;28;20209;-75
2021/03/06 02:29:40;;;;;;;6.87;4.63;;;-0.70;99.90;;;;;;4951230;28;20267;-76
2021/03/06 02:32:11;;;;;;;7.93;4.43;;;-0.70;99.90;;;;;;4958999;28;20312;-76
2021/03/06 02:34:41;;;;;;;7.17;4.23;;;-0.80;99.90;;;;;;4953799;29;20644;-75
2021/03/06 02:37:10;;;;;;;8.60;4.23;;;-0.80;99.90;;;;;;4960765;28;20220;-76
2021/03/06 02:39:41;;;;;;;7.87;4.80;;;-0.80;99.90;;;;;;4958239;28;20236;-75
2021/03/06 02:42:09;;;;;;;7.40;4.30;;;-0.80;99.90;;;;;;4959060;29;20201;-76
2021/03/06 02:44:37;;;;;;;7.13;4.63;;;-0.80;99.90;;;;;;4953808;28;20585;-75
2021/03/06 02:47:04;;;;;;;8.73;4.77;;;-0.80;99.90;;;;;;4963973;28;20236;-74
2021/03/06 02:49:31;;;;;;;7.67;5.00;;;-0.80;99.90;;;;;;4959721;28;20223;-77
2021/03/06 02:51:57;;;;;;;10.33;5.23;;;-0.80;99.90;;;;;;4957062;28;20240;-75
2021/03/06 02:54:24;;;;;;;7.80;4.70;;;-0.80;99.90;;;;;;4954401;28;20292;-75
2021/03/06 02:56:51;;;;;;;8.80;4.60;;;-0.80;99.90;;;;;;4977684;28;20213;-76
2021/03/06 02:59:41;;;;;;;9.63;4.60;;;-0.90;99.90;;;;;;4958851;28;20205;-75
2021/03/06 03:02:15;;;;;;;9.37;5.07;;;-0.80;99.90;;;;;;4957074;28;20291;-77
2021/03/06 03:04:50;;;;;;;9.07;4.87;;;-0.90;99.90;;;;;;4951433;28;20317;-76
2021/03/06 03:07:22;;;;;;;8.40;4.87;;;-0.90;99.90;;;;;;4955722;29;20205;-76
2021/03/06 03:09:53;;;;;;;10.80;4.77;;;-0.90;99.90;;;;;;4955883;28;20201;-75
2021/03/06 03:12:24;;;;;;;8.23;4.73;;;-0.90;99.90;;;;;;4953677;28;20220;-75
2021/03/06 03:15:00;;;;;;;8.63;5.10;;;-0.90;99.90;;;;;;4958026;29;20218;-76
2021/03/06 03:17:33;;;;;;;9.80;4.80;;;-0.90;99.90;;;;;;4960941;29;20264;-76
2021/03/06 03:20:02;;;;;;;7.57;4.67;;;-1.00;99.90;;;;;;4961911;28;20205;-74
2021/03/06 03:22:35;;;;;;;8.37;4.73;;;-0.90;99.90;;;;;;4953996;29;20245;-76
2021/03/06 03:25:05;;;;;;;8.90;5.13;;;-0.90;99.90;;;;;;4957389;29;20622;-75
2021/03/06 03:27:32;;;;;;;10.70;4.77;;;-0.90;99.90;;;;;;4957030;28;20264;-75
2021/03/06 03:30:01;;;;;;;11.20;5.33;;;-1.00;99.90;;;;;;4955913;28;20631;-75
2021/03/06 03:32:29;;;;;;;9.73;4.67;;;-1.00;99.90;;;;;;4955443;28;20229;-75
2021/03/06 03:34:57;;;;;;;9.23;5.07;;;-1.00;99.90;;;;;;4952382;28;20232;-75
2021/03/06 03:37:25;;;;;;;9.17;4.60;;;-1.00;99.90;;;;;;4955017;28;20297;-75
2021/03/06 03:39:53;;;;;;;10.53;5.00;;;-1.00;99.90;;;;;;4951195;28;20225;-75
2021/03/06 03:42:21;;;;;;;11.23;5.40;;;-1.00;99.90;;;;;;4958131;28;20332;-75
2021/03/06 03:44:49;;;;;;;8.57;5.23;;;-1.00;99.90;;;;;;4949842;29;20248;-76
2021/03/06 03:47:18;;;;;;;9.40;4.87;;;-1.00;99.90;;;;;;4954625;29;20245;-75
2021/03/06 03:49:46;;;;;;;8.93;4.83;;;-1.00;99.90;;;;;;4953605;28;20734;-75
2021/03/06 03:52:13;;;;;;;9.23;5.07;;;-1.00;99.90;;;;;;4952441;28;20236;-76
2021/03/06 03:54:40;;;;;;;9.37;5.13;;;-1.00;99.90;;;;;;4957344;28;20205;-75
2021/03/06 03:57:08;;;;;;;8.60;4.90;;;-1.00;99.90;;;;;;4956874;28;20404;-76
2021/03/06 03:59:35;;;;;;;8.40;5.07;;;-1.00;99.90;;;;;;4952905;28;20241;-75
2021/03/06 04:02:02;;;;;;;8.80;5.10;;;-1.10;99.90;;;;;;4955708;29;20202;-75
2021/03/06 04:04:33;;;;;;;9.77;5.87;;;-1.10;99.90;;;;;;4954068;29;20229;-75
2021/03/06 04:07:01;;;;;;;9.37;5.30;;;-1.10;99.90;;;;;;4956525;29;20225;-74
2021/03/06 04:09:28;;;;;;;10.33;5.30;;;-1.10;99.90;;;;;;4955542;28;20206;-75
2021/03/06 04:11:55;;;;;;;10.83;5.23;;;-1.10;99.90;;;;;;4957375;28;20209;-75
2021/03/06 04:14:22;;;;;;;10.17;5.60;;;-1.20;99.90;;;;;;4948859;28;20234;-76
2021/03/06 04:16:49;;;;;;;7.53;5.03;;;-1.10;99.90;;;;;;4953510;29;20237;-76
2021/03/06 04:19:15;;;;;;;10.43;5.50;;;-1.20;99.90;;;;;;4955529;28;20667;-75
2021/03/06 04:21:45;;;;;;;10.43;5.60;;;-1.20;99.90;;;;;;4953763;28;20242;-76
2021/03/06 04:24:11;;;;;;;8.37;5.50;;;-1.20;99.90;;;;;;4952301;28;20703;-76
2021/03/06 04:26:38;;;;;;;8.93;5.63;;;-1.20;99.90;;;;;;4954477;28;20643;-76
2021/03/06 04:29:06;;;;;;;10.30;5.17;;;-1.20;99.90;;;;;;4955779;28;20802;-75
2021/03/06 04:31:34;;;;;;;10.37;5.87;;;-1.30;99.90;;;;;;4951430;28;20352;-76
2021/03/06 04:34:00;;;;;;;11.27;5.50;;;-1.20;99.90;;;;;;4953252;28;20273;-76
2021/03/06 04:36:27;;;;;;;10.73;5.43;;;-1.30;99.90;;;;;;4952243;29;20298;-76
2021/03/06 04:38:54;;;;;;;9.43;5.10;;;-1.40;99.90;;;;;;4953342;28;20304;-76
2021/03/06 04:41:21;;;;;;;12.50;6.00;;;-1.40;99.90;;;;;;4950999;28;20643;-76
2021/03/06 04:43:48;;;;;;;9.47;5.37;;;-1.40;99.90;;;;;;4954485;29;20585;-74
2021/03/06 04:46:15;;;;;;;8.03;5.23;;;-1.40;99.90;;;;;;4951953;29;20217;-76
2021/03/06 04:48:41;;;;;;;8.17;5.30;;;-1.30;99.90;;;;;;4956327;28;20217;-75
2021/03/06 04:51:08;;;;;;;9.73;5.00;;;-1.40;99.90;;;;;;4949241;28;20787;-77
2021/03/06 04:53:34;;;;;;;9.67;5.13;;;-1.40;99.90;;;;;;4952452;29;20398;-74
2021/03/06 04:56:02;;;;;;;12.97;5.37;;;-1.40;99.90;;;;;;4948904;28;20617;-75
2021/03/06 04:58:28;;;;;;;12.63;4.67;;;-1.40;99.90;;;;;;4953490;28;20220;-76
2021/03/06 05:00:54;;;;;;;10.67;5.07;;;-1.30;99.90;;;;;;4953785;28;20300;-75
2021/03/06 05:03:21;;;;;;;10.43;4.80;;;-1.30;99.90;;;;;;4954326;28;20244;-76
2021/03/06 05:05:47;;;;;;;8.03;4.43;;;-1.30;99.90;;;;;;4954943;29;20734;-76
2021/03/06 05:08:14;;;;;;;10.30;5.23;;;-1.30;99.90;;;;;;4952021;28;20300;-74
2021/03/06 05:10:40;;;;;;;8.57;4.83;;;-1.20;99.90;;;;;;4953522;28;20248;-76
2021/03/06 05:13:07;;;;;;;6.83;4.17;;;-1.20;99.90;;;;;;4951924;28;20201;-75
2021/03/06 05:15:33;;;;;;;8.30;5.30;;;-1.20;99.90;;;;;;4944758;29;20222;-75
2021/03/06 05:18:00;;;;;;;8.50;4.43;;;-1.10;99.90;;;;;;4949523;28;20264;-76
2021/03/06 05:20:27;;;;;;;7.10;4.10;;;-1.20;99.90;;;;;;4947009;28;20257;-76
2021/03/06 05:22:53;;;;;;;9.47;4.83;;;-1.20;99.90;;;;;;4951975;28;20633;-75
2021/03/06 05:25:20;;;;;;;8.67;4.80;;;-1.20;99.90;;;;;;4951341;29;20240;-76
2021/03/06 05:27:51;;;;;;;8.37;4.60;;;-1.20;99.90;;;;;;4955073;28;20206;-76
2021/03/06 05:30:21;;;;;;;7.70;4.27;;;-1.00;99.90;;;;;;4951673;28;20201;-75
2021/03/06 05:32:47;;;;;;;7.87;4.57;;;-1.10;99.90;;;;;;4947609;29;20260;-75
2021/03/06 05:35:14;;;;;;;9.60;4.93;;;-1.00;99.90;;;;;;4947395;29;20217;-75
2021/03/06 05:37:41;;;;;;;7.47;4.33;;;-0.90;99.90;;;;;;4952987;28;20208;-75
2021/03/06 05:40:08;;;;;;;7.37;4.40;;;-0.80;99.90;;;;;;4951742;28;20218;-75
2021/03/06 05:42:36;;;;;;;7.77;4.63;;;-0.80;99.90;;;;;;4950277;28;20336;-75
2021/03/06 05:45:03;;;;;;;10.27;4.33;;;-0.70;99.90;;;;;;4955193;28;20749;-76
2021/03/06 05:47:31;;;;;;;9.33;4.57;;;-0.60;99.90;;;;;;4952245;29;20219;-75
2021/03/06 05:49:58;;;;;;;10.60;3.97;;;-0.60;99.90;;;;;;4951883;28;20212;-74
2021/03/06 05:52:26;;;;;;;6.50;4.33;;;-0.60;99.90;;;;;;4951411;28;20210;-76
2021/03/06 05:54:55;;;;;;;4.87;3.50;;;-0.50;99.90;;;;;;4955190;29;20216;-76
2021/03/06 05:57:23;;;;;;;7.30;4.33;;;-0.50;99.90;;;;;;4950112;28;20300;-76
2021/03/06 05:59:50;;;;;;;5.93;3.80;;;-0.50;99.90;;;;;;4949075;28;20273;-75
2021/03/06 06:02:17;;;;;;;7.37;4.03;;;-0.40;99.90;;;;;;4946568;29;20630;-75
2021/03/06 06:04:45;;;;;;;5.83;3.93;;;-0.40;99.90;;;;;;4946195;28;20261;-76
2021/03/06 06:07:15;;;;;;;9.67;4.67;;;-0.40;99.90;;;;;;4949815;29;20206;-79
2021/03/06 06:09:42;;;;;;;7.87;3.87;;;-0.30;99.90;;;;;;4950812;28;20300;-77
2021/03/06 06:12:09;;;;;;;6.70;4.27;;;-0.30;99.90;;;;;;4951501;28;20236;-78
2021/03/06 06:14:36;;;;;;;8.27;3.57;;;-0.20;99.90;;;;;;4953180;28;20225;-76
2021/03/06 06:17:06;;;;;;;6.37;3.73;;;-0.20;99.90;;;;;;4948302;28;20689;-77
2021/03/06 06:19:33;;;;;;;7.47;4.00;;;-0.10;99.90;;;;;;4951260;28;20625;-78
2021/03/06 06:22:04;;;;;;;7.53;3.80;;;-0.10;99.90;;;;;;4956642;29;20302;-77
2021/03/06 06:24:31;;;;;;;8.80;3.77;;;0.00;99.90;;;;;;4955359;28;20338;-78
2021/03/06 06:26:59;;;;;;;7.07;4.10;;;0.00;99.90;;;;;;4956836;28;20563;-78
2021/03/06 06:29:41;;;;;;;6.97;3.73;;;0.00;99.90;;;;;;4958445;28;20208;-80
2021/03/06 06:32:09;;;;;;;10.27;3.77;;;0.00;99.90;;;;;;4954092;28;20209;-76
2021/03/06 06:34:36;;;;;;;5.50;3.27;;;0.10;99.90;;;;;;4949348;29;20206;-78
2021/03/06 06:37:12;;;;;;;8.07;3.70;;;0.10;99.90;;;;;;4948842;29;20277;-79
2021/03/06 06:39:39;;;;;;;7.13;4.10;;;0.10;99.90;;;;;;4953451;28;20220;-77
2021/03/06 06:42:08;;;;;;;8.03;3.97;;;0.20;99.90;;;;;;4953653;29;20301;-79
2021/03/06 06:44:38;;;;;;;9.83;4.17;;;0.30;99.90;;;;;;4954400;28;20225;-77
2021/03/06 06:47:16;;;;;;;7.27;3.37;;;0.50;99.90;;;;;;4955186;29;20213;-78
2021/03/06 06:49:47;;;;;;;6.90;3.50;;;0.60;99.90;;;;;;4957572;28;20213;-79
2021/03/06 06:52:17;;;;;;;6.20;3.30;;;0.70;99.90;;;;;;4950442;29;20209;-77
2021/03/06 06:54:52;;;;;;;7.70;3.67;;;0.70;99.90;;;;;;4959417;28;20257;-79
2021/03/06 06:57:19;;;;;;;7.37;3.80;;;0.80;99.90;;;;;;4959933;28;20212;-78
2021/03/06 06:59:54;;;;;;;6.67;3.57;;;0.80;99.90;;;;;;4953100;28;20209;-76
2021/03/06 07:02:21;;;;;;;8.20;4.30;;;0.80;99.90;;;;;;4947307;28;20616;-75
2021/03/06 07:04:50;;;;;;;5.50;3.23;;;0.80;99.90;;;;;;4947724;28;20324;-75
2021/03/06 07:07:19;;;;;;;7.77;3.70;;;0.90;99.90;;;;;;4946897;29;20756;-74
2021/03/06 07:10:00;;;;;;;5.73;3.87;;;1.00;99.90;;;;;;4954258;28;20205;-75
2021/03/06 07:12:30;;;;;;;11.30;4.07;;;1.20;99.90;;;;;;4951576;28;20285;-77
2021/03/06 07:14:56;;;;;;;7.13;4.37;;;1.30;99.90;;;;;;4950282;29;20249;-76
2021/03/06 07:17:23;;;;;;;7.37;3.80;;;1.40;99.90;;;;;;4949246;28;20678;-75
2021/03/06 07:19:50;;;;;;;5.77;3.60;;;1.60;99.90;;;;;;4957125;28;20288;-76
2021/03/06 07:22:18;;;;;;;11.43;3.60;;;1.70;99.90;;;;;;4951751;28;20209;-76
2021/03/06 07:24:46;;;;;;;11.23;3.73;;;1.80;99.90;;;;;;4950097;28;20268;-75
2021/03/06 07:27:12;;;;;;;8.60;3.80;;;1.80;99.90;;;;;;4956182;28;20660;-75
2021/03/06 07:29:39;;;;;;;6.03;3.47;;;1.90;99.90;;;;;;4951204;28;20248;-77
2021/03/06 07:32:09;;;;;;;7.17;3.70;;;2.00;99.90;;;;;;4951086;28;20206;-75
2021/03/06 07:34:36;;;;;;;8.53;4.17;;;2.00;99.90;;;;;;4954091;28;20205;-75
2021/03/06 07:37:05;;;;;;;7.90;3.40;;;2.00;99.90;;;;;;4954569;29;20300;-75
2021/03/06 07:39:40;;;;;;;6.93;3.37;;;2.00;99.90;;;;;;4954333;28;20239;-75
2021/03/06 07:42:25;;;;;;;6.67;3.63;;;2.10;99.90;;;;;;4954991;28;20213;-74
2021/03/06 07:44:55;;;;;;;6.57;3.87;;;2.10;99.90;;;;;;4952671;29;20229;-75
2021/03/06 07:47:24;;;;;;;7.47;3.87;;;2.30;99.90;;;;;;4952650;28;20221;-76
2021/03/06 07:49:54;;;;;;;8.57;4.00;;;2.50;99.90;;;;;;4951797;28;20293;-74
2021/03/06 07:52:22;;;;;;;6.33;3.53;;;2.60;99.90;;;;;;4955582;28;20213;-76
2021/03/06 07:54:50;;;;;;;6.47;3.63;;;2.50;99.90;;;;;;4953506;28;20205;-77
2021/03/06 07:57:17;;;;;;;6.33;3.40;;;2.50;99.90;;;;;;4951176;28;20285;-77
2021/03/06 07:59:47;;;;;;;6.47;3.73;;;2.70;99.90;;;;;;4955890;28;20602;-76
2021/03/06 08:02:29;;;;;;;3.97;3.10;;;2.80;99.90;;;;;;4950940;28;20209;-76
2021/03/06 08:04:55;;;;;;;7.70;3.97;;;3.00;99.90;;;;;;4952340;29;20304;-76
2021/03/06 08:07:37;;;;;;;5.77;3.53;;;3.00;99.90;;;;;;4952542;29;20281;-75
2021/03/06 08:10:06;;;;;;;7.07;4.50;;;3.10;99.90;;;;;;4948465;28;20241;-73
2021/03/06 08:12:33;;;;;;;11.37;5.87;;;3.40;99.90;;;;;;4951642;28;20222;-76
2021/03/06 08:15:27;;;;;;;6.97;3.93;;;3.60;99.90;;;;;;4954321;28;20256;-74
2021/03/06 08:17:55;;;;;;;6.93;3.17;;;3.80;99.90;;;;;;4949728;28;20647;-75
2021/03/06 08:20:28;;;;;;;10.07;6.13;;;4.00;99.90;;;;;;4948977;28;20210;-75
2021/03/06 08:23:25;;;;;;;6.20;4.27;;;4.30;99.90;;;;;;4951581;28;20639;-75
2021/03/06 08:26:33;;;;;;;7.17;3.63;;;4.50;99.90;;;;;;4948116;29;20218;-77
2021/03/06 08:29:34;;;;;;;6.90;4.00;;;4.50;99.90;;;;;;4889815;29;20677;-78
2021/03/06 08:32:02;;;;;;;9.67;4.07;;;4.60;99.90;;;;;;4894301;29;20294;-73
2021/03/06 08:34:30;;;;;;;4.43;2.93;;;4.70;99.90;;;;;;4940471;28;20212;-75
2021/03/06 08:37:42;;;;;;;8.43;4.20;;;4.90;99.50;;;;;;4951240;28;20202;-74
2021/03/06 08:40:15;;;;;;;10.40;4.60;;;5.00;98.40;;;;;;4954961;28;20296;-75
2021/03/06 08:42:45;;;;;;;8.83;4.30;;;5.00;97.10;;;;;;4949435;28;20216;-75
2021/03/06 08:45:15;;;;;;;10.83;5.37;;;5.00;96.80;;;;;;4950830;29;20625;-75
2021/03/06 08:47:42;;;;;;;10.90;5.23;;;5.10;97.20;;;;;;4952515;28;20230;-76
2021/03/06 08:50:11;;;;;;;9.17;4.67;;;5.30;97.50;;;;;;4950619;28;20233;-76
2021/03/06 08:52:39;;;;;;;9.97;5.10;;;5.50;97.00;;;;;;4950306;28;20304;-73
2021/03/06 08:55:07;;;;;;;7.53;4.67;;;5.70;96.50;;;;;;4948480;29;20657;-75
2021/03/06 08:57:35;;;;;;;12.13;5.00;;;5.80;95.00;;;;;;4953049;28;20256;-75
2021/03/06 09:00:08;;;;;;;8.47;4.63;;;6.00;93.90;;;;;;4950393;29;20209;-75
2021/03/06 09:02:36;;;;;;;10.07;5.03;;;6.20;94.10;;;;;;4950621;28;20205;-77
2021/03/06 09:05:07;;;;;;;10.20;5.70;;;6.40;92.70;;;;;;4948236;29;20231;-76
2021/03/06 09:07:36;;;;;;;9.90;5.30;;;6.60;91.70;;;;;;4944400;29;20214;-75
2021/03/06 09:10:32;;;;;;;8.93;5.50;;;6.70;91.30;;;;;;4950420;28;20208;-77
2021/03/06 09:13:02;;;;;;;9.10;5.00;;;6.90;93.90;;;;;;4946359;28;20275;-76
2021/03/06 09:15:54;;;;;;;7.77;4.50;;;7.30;92.10;;;;;;4946567;29;20217;-76
2021/03/06 09:18:23;;;;;;;7.07;3.90;;;7.80;87.30;;;;;;4941538;28;20316;-74
2021/03/06 09:20:55;;;;;;;7.07;3.67;;;8.30;92.10;;;;;;4949102;28;20292;-74
2021/03/06 09:23:32;;;;;;;10.70;4.30;;;8.90;79.80;;;;;;4951160;28;20762;-74
2021/03/06 09:26:02;;;;;;;5.63;3.27;;;10.30;92.60;;;;;;4946414;28;20214;-75
2021/03/06 09:28:29;;;;;;;6.00;3.43;;;12.10;59.20;;;;;;4953178;28;20213;-76
2021/03/06 09:31:01;;;;;;;7.00;3.63;;;13.80;54.50;;;;;;4949391;28;20209;-74
2021/03/06 09:33:30;;;;;;;5.93;3.67;;;16.40;48.30;;;;;;4944591;28;20290;-73
2021/03/06 09:36:02;;;;;;;5.57;3.10;;;17.20;45.80;;;;;;4952232;28;20215;-76
2021/03/06 09:38:29;;;;;;;5.23;3.77;;;19.30;43.50;;;;;;4952092;28;20213;-72
2021/03/06 09:40:56;;;;;;;5.05;3.47;;;22.50;36.90;;;;;;4951453;28;20625;-75
2021/03/06 09:43:34;;;;;;;7.25;2.88;;;25.90;31.90;;;;;;4946293;28;20662;-76
2021/03/06 09:46:03;;;;;;;5.95;2.95;;;29.10;27.70;;;;;;4951294;29;20216;-76
2021/03/06 09:48:29;;;;;;;6.60;3.42;;;31.00;24.90;;;;;;4950393;28;20285;-75
2021/03/06 09:50:57;;;;;;;5.40;2.90;;;32.00;23.30;;;;;;4950849;28;20212;-76
2021/03/06 09:53:25;;;;;;;4.50;3.30;;;32.40;22.50;;;;;;4944936;28;20217;-74
2021/03/06 09:56:06;;;;;;;6.75;3.25;;;31.90;22.30;;;;;;4949445;28;20289;-75
2021/03/06 09:58:32;;;;;;;7.13;2.92;;;32.10;21.80;;;;;;4944853;29;20252;-75
2021/03/06 10:01:13;;;;;;;3.85;2.88;;;32.40;21.30;;;;;;4951354;28;20227;-75
2021/03/06 10:03:40;;;;;;;4.47;3.08;;;30.80;21.00;;;;;;4952038;29;20296;-74
2021/03/06 10:06:08;;;;;;;4.05;3.15;;;28.30;21.30;;;;;;4947871;28;20233;-75
2021/03/06 10:08:39;;;;;;;5.55;3.20;;;27.50;23.70;;;;;;4951631;28;20225;-74
2021/03/06 10:11:06;;;;;;;5.47;3.40;;;26.90;23.20;;;;;;4949690;28;20260;-75
2021/03/06 10:13:33;;;;;;;5.22;3.80;;;27.20;24.20;;;;;;4945876;28;20666;-74
2021/03/06 10:16:01;;;;;;;8.43;4.35;;;27.20;21.90;;;;;;4950459;28;20308;-74
2021/03/06 10:18:28;;;;;;;7.03;4.07;;;26.30;23.30;;;;;;4952550;28;20315;-75
2021/03/06 10:20:56;;;;;;;6.65;4.82;;;25.50;25.50;;;;;;4951282;28;20210;-75
2021/03/06 10:23:33;;;;;;;6.80;4.35;;;25.40;24.70;;;;;;4951072;29;20218;-75
2021/03/06 10:26:13;;;;;;;6.53;4.47;;;26.40;24.30;;;;;;4945316;29;20311;-75
2021/03/06 10:28:39;;;;;;;7.00;4.25;;;26.60;24.30;;;;;;4950874;29;20216;-75
2021/03/06 10:31:06;;;;;;;10.00;4.18;;;27.60;24.00;;;;;;4973325;28;20217;-74
2021/03/06 10:33:39;;;;;;;5.28;4.03;;;30.10;22.60;;;;;;4951704;28;20212;-75
2021/03/06 10:36:15;;;;;;;6.80;4.38;;;32.70;21.20;;;;;;4948467;28;20213;-74
2021/03/06 10:38:42;;;;;;;5.78;4.35;;;34.50;20.20;;;;;;4951976;28;20272;-75
2021/03/06 10:41:16;;;;;;;7.65;4.70;;;35.30;19.50;;;;;;4953832;28;20628;-75
2021/03/06 10:43:50;;;;;;;6.65;4.13;;;36.00;19.40;;;;;;4951783;28;20209;-75
2021/03/06 10:46:18;;;;;;;7.30;4.55;;;36.60;18.90;;;;;;4948002;28;20227;-77
2021/03/06 10:48:52;;;;;;;5.55;3.90;;;36.80;18.70;;;;;;4953495;29;20209;-73
2021/03/06 10:51:19;;;;;;;7.03;4.18;;;37.20;18.60;;;;;;4952958;28;20205;-74
2021/03/06 10:53:59;;;;;;;7.38;4.50;;;37.50;18.60;;;;;;4953777;29;20212;-75
2021/03/06 10:56:25;;;;;;;6.97;4.40;;;38.30;18.30;;;;;;4952695;29;20671;-74
2021/03/06 10:58:52;;;;;;;6.93;4.30;;;38.40;18.10;;;;;;4952332;29;20220;-74
2021/03/06 11:01:19;;;;;;;6.95;4.30;;;38.70;17.90;;;;;;4952656;28;20308;-74
2021/03/06 11:03:49;;;;;;;8.50;4.50;;;38.70;17.90;;;;;;4947655;28;20311;-76
2021/03/06 11:06:17;;;;;;;7.43;4.18;;;39.30;17.90;;;;;;4949438;28;20284;-74
2021/03/06 11:08:45;;;;;;;6.00;4.15;;;39.80;17.50;;;;;;4952623;28;20209;-74
2021/03/06 11:11:25;;;;;;;6.03;4.05;;;39.90;17.50;;;;;;4956988;28;20233;-73
2021/03/06 11:13:51;;;;;;;6.82;4.07;;;39.70;17.40;;;;;;4950340;28;20244;-77
2021/03/06 11:16:35;;;;;;;6.45;4.13;;;39.30;17.40;;;;;;4954401;28;20833;-77
2021/03/06 11:19:03;;;;;;;5.85;3.67;;;39.00;17.40;;;;;;4950465;28;20288;-77
2021/03/06 11:21:29;;;;;;;4.85;3.60;;;38.50;17.50;;;;;;4955143;28;20225;-76
2021/03/06 11:23:58;;;;;;;6.13;4.07;;;38.10;17.90;;;;;;4954417;29;20268;-80
2021/03/06 11:26:25;;;;;;;4.80;3.35;;;37.70;17.60;;;;;;4951623;28;20206;-76
2021/03/06 11:28:54;;;;;;;3.88;3.00;;;37.70;17.90;;;;;;4950133;29;20225;-75
2021/03/06 11:31:20;;;;;;;4.85;3.10;;;37.90;17.70;;;;;;4954852;28;20288;-77
2021/03/06 11:33:47;;;;;;;5.65;3.60;;;37.60;17.40;;;;;;4955812;29;20316;-77
2021/03/06 11:36:14;;;;;;;4.22;3.20;;;37.20;17.80;;;;;;4954798;28;20217;-75
2021/03/06 11:38:41;;;;;;;4.10;3.20;;;37.40;18.00;;;;;;4950465;29;20209;-74
2021/03/06 11:41:07;;;;;;;5.28;3.42;;;37.60;18.00;;;;;;4954745;28;20256;-76
2021/03/06 11:43:33;;;;;;;5.15;2.97;;;37.00;18.10;;;;;;4949344;28;20216;-77
2021/03/06 11:46:00;;;;;;;4.40;2.88;;;35.30;17.00;;;;;;4951491;29;20623;-76
2021/03/06 11:48:26;;;;;;;5.18;3.03;;;31.90;18.20;;;;;;4947779;28;20348;-76
2021/03/06 11:50:53;;;;;;;8.63;3.08;;;28.20;19.90;;;;;;4949757;28;20685;-76
2021/03/06 11:53:20;;;;;;;4.47;2.60;;;25.60;24.90;;;;;;4953947;28;20220;-79
2021/03/06 11:55:46;;;;;;;4.63;2.78;;;25.90;23.20;;;;;;4948548;28;20214;-76
2021/03/06 11:58:15;;;;;;;4.25;2.67;;;26.70;23.40;;;;;;4954448;28;20233;-76
2021/03/06 12:00:41;;;;;;;4.25;2.65;;;26.50;21.70;;;;;;4949893;28;20709;-77
2021/03/06 12:03:08;;;;;;;4.50;2.97;;;24.70;22.50;;;;;;4952777;28;20240;-77
2021/03/06 12:05:34;;;;;;;6.63;3.13;;;22.20;23.50;;;;;;4951169;28;20237;-77
2021/03/06 12:08:01;;;;;;;4.00;2.65;;;19.70;24.80;;;;;;4956306;29;20290;-77
2021/03/06 12:10:30;;;;;;;5.20;2.83;;;17.50;26.40;;;;;;4954454;28;20202;-78
2021/03/06 12:12:56;;;;;;;7.10;2.87;;;16.10;30.10;;;;;;4950757;29;20276;-77
2021/03/06 12:15:25;;;;;;;4.27;2.87;;;16.00;28.80;;;;;;4953653;28;20592;-77
2021/03/06 12:17:52;;;;;;;6.40;3.57;;;15.50;28.70;;;;;;4953173;28;20332;-73
2021/03/06 12:20:19;;;;;;;3.80;2.60;;;14.70;29.50;;;;;;4946610;28;20221;-76
2021/03/06 12:22:47;;;;;;;4.20;2.90;;;13.80;30.30;;;;;;4946759;29;20576;-77
2021/03/06 12:25:14;;;;;;;3.67;2.77;;;12.90;31.00;;;;;;4952079;29;20589;-79
2021/03/06 12:27:42;;;;;;;12.97;3.13;;;12.00;31.90;;;;;;4957950;28;20257;-80
2021/03/06 12:30:14;;;;;;;3.57;2.30;;;11.30;33.20;;;;;;4950556;28;20218;-79
2021/03/06 12:32:43;;;;;;;5.97;2.90;;;10.50;33.80;;;;;;4954587;28;20209;-78
2021/03/06 12:35:11;;;;;;;3.97;2.70;;;10.40;35.50;;;;;;4950259;28;20209;-77
2021/03/06 12:37:38;;;;;;;4.43;2.87;;;10.70;36.50;;;;;;4951885;29;20210;-76
2021/03/06 12:40:07;;;;;;;3.50;2.30;;;11.20;34.10;;;;;;4955577;28;20216;-78
2021/03/06 12:42:33;;;;;;;3.23;2.70;;;11.10;33.80;;;;;;4947309;28;20293;-78
2021/03/06 12:45:00;;;;;;;5.60;3.10;;;10.70;34.20;;;;;;4950358;28;20229;-79
2021/03/06 12:47:27;;;;;;;5.33;3.23;;;10.10;35.10;;;;;;4949524;28;20225;-78
2021/03/06 12:49:57;;;;;;;4.10;3.10;;;9.60;37.20;;;;;;4949651;28;20311;-79
2021/03/06 12:52:23;;;;;;;7.77;3.57;;;9.00;37.90;;;;;;4947574;28;20210;-78
2021/03/06 12:54:50;;;;;;;7.80;3.37;;;8.50;39.00;;;;;;4954075;28;20300;-76
2021/03/06 12:57:16;;;;;;;3.87;2.80;;;8.10;40.10;;;;;;4946943;29;20237;-77
2021/03/06 12:59:42;;;;;;;5.40;3.30;;;7.80;40.60;;;;;;4946851;28;20210;-77
2021/03/06 13:02:10;;;;;;;7.37;5.10;;;7.70;41.40;;;;;;4945707;28;20296;-73